createdAt,value
2017-11-24T00:00:17.057Z,3.70
2017-11-24T00:02:44.519Z,3.70
2017-11-24T00:05:11.290Z,3.70
2017-11-24T00:07:37.549Z,3.80
2017-11-24T00:10:03.776Z,3.70
2017-11-24T00:12:30.025Z,3.50
2017-11-24T00:14:56.754Z,3.60
2017-11-24T00:17:23.345Z,3.60
2017-11-24T00:19:50.320Z,3.60
2017-11-24T00:22:16.531Z,3.60
2017-11-24T00:24:43.426Z,3.50
2017-11-24T00:27:10.139Z,3.60
2017-11-24T00:29:36.857Z,3.60
2017-11-24T00:32:03.587Z,3.60
2017-11-24T00:34:31.172Z,3.20
2017-11-24T00:36:57.849Z,3.20
2017-11-24T00:39:25.424Z,3.30
2017-11-24T00:41:51.870Z,3.30
2017-11-24T00:44:19.834Z,3.30
2017-11-24T00:46:46.780Z,3.30
2017-11-24T00:49:14.393Z,3.30
2017-11-24T00:51:41.552Z,3.30
2017-11-24T00:54:08.558Z,3.30
2017-11-24T00:56:35.043Z,3.30
2017-11-24T00:59:02.254Z,3.30
2017-11-24T01:01:28.473Z,3.40
2017-11-24T01:03:55.221Z,3.40
2017-11-24T01:06:21.551Z,3.30
2017-11-24T01:08:48.330Z,3.30
2017-11-24T01:11:14.648Z,3.30
2017-11-24T01:13:41.437Z,3.30
2017-11-24T01:16:08.408Z,3.30
2017-11-24T01:18:35.225Z,3.30
2017-11-24T01:21:02.817Z,3.40
2017-11-24T01:23:29.134Z,3.40
2017-11-24T01:25:55.923Z,3.40
2017-11-24T01:28:22.641Z,3.40
2017-11-24T01:30:49.192Z,3.40
2017-11-24T01:33:16.378Z,3.30
2017-11-24T01:35:43.633Z,3.30
2017-11-24T01:38:11.332Z,3.30
2017-11-24T01:40:37.622Z,3.30
2017-11-24T01:43:04.591Z,3.20
2017-11-24T01:45:31.391Z,3.20
2017-11-24T01:47:57.825Z,3.30
2017-11-24T01:50:24.966Z,3.30
2017-11-24T01:52:52.298Z,3.30
2017-11-24T01:55:19.363Z,3.20
2017-11-24T01:57:45.649Z,3.20
2017-11-24T02:00:11.955Z,3.20
2017-11-24T02:02:39.400Z,3.30
2017-11-24T02:05:06.395Z,3.30
2017-11-24T02:07:32.640Z,3.30
2017-11-24T02:09:59.436Z,3.40
2017-11-24T02:12:26.059Z,3.40
2017-11-24T02:14:53.573Z,3.40
2017-11-24T02:17:20.502Z,3.30
2017-11-24T02:19:47.585Z,3.30
2017-11-24T02:22:14.994Z,3.40
2017-11-24T02:24:41.237Z,3.40
2017-11-24T02:27:08.385Z,3.30
2017-11-24T02:29:35.613Z,3.30
2017-11-24T02:32:02.419Z,3.40
2017-11-24T02:34:28.674Z,3.30
2017-11-24T02:36:55.518Z,3.30
2017-11-24T02:39:22.041Z,3.20
2017-11-24T02:41:49.089Z,3.20
2017-11-24T02:44:16.619Z,3.20
2017-11-24T02:46:43.319Z,3.20
2017-11-24T02:49:10.599Z,3.30
2017-11-24T02:51:38.236Z,3.30
2017-11-24T02:54:05.233Z,3.30
2017-11-24T02:56:33.237Z,3.30
2017-11-24T02:59:00.281Z,3.30
2017-11-24T03:01:27.364Z,3.40
2017-11-24T03:03:54.632Z,3.40
2017-11-24T03:06:21.628Z,3.40
2017-11-24T03:08:48.485Z,3.40
2017-11-24T03:11:14.786Z,3.40
2017-11-24T03:13:42.247Z,3.40
2017-11-24T03:16:08.498Z,3.40
2017-11-24T03:18:35.608Z,3.40
2017-11-24T03:21:02.655Z,3.30
2017-11-24T03:23:30.003Z,3.30
2017-11-24T03:25:56.972Z,3.20
2017-11-24T03:28:23.331Z,3.20
2017-11-24T03:30:50.216Z,3.20
2017-11-24T03:33:16.476Z,3.30
2017-11-24T03:35:43.745Z,3.30
2017-11-24T03:38:10.055Z,3.20
2017-11-24T03:40:36.310Z,3.10
2017-11-24T03:43:02.560Z,2.90
2017-11-24T03:45:29.389Z,3.00
2017-11-24T03:47:55.996Z,3.00
2017-11-24T03:50:22.279Z,3.00
2017-11-24T03:52:49.492Z,3.00
2017-11-24T03:55:15.731Z,2.90
2017-11-24T03:57:42.299Z,2.90
2017-11-24T04:00:09.463Z,3.00
2017-11-24T04:02:36.430Z,3.00
2017-11-24T04:05:03.877Z,3.00
2017-11-24T04:07:30.668Z,3.10
2017-11-24T04:09:57.532Z,3.00
2017-11-24T04:12:24.560Z,3.10
2017-11-24T04:14:50.799Z,3.10
2017-11-24T04:17:17.654Z,3.20
2017-11-24T04:19:44.807Z,3.40
2017-11-24T04:22:11.677Z,3.30
2017-11-24T04:24:38.152Z,3.40
2017-11-24T04:27:05.753Z,3.40
2017-11-24T04:29:32.719Z,3.50
2017-11-24T04:31:59.012Z,3.50
2017-11-24T04:34:25.255Z,3.50
2017-11-24T04:36:52.785Z,3.50
2017-11-24T04:39:19.663Z,3.50
2017-11-24T04:41:47.631Z,3.60
2017-11-24T04:44:14.639Z,3.70
2017-11-24T04:46:41.511Z,3.60
2017-11-24T04:49:09.455Z,3.70
2017-11-24T04:51:35.998Z,3.70
2017-11-24T04:54:02.985Z,3.70
2017-11-24T04:56:29.326Z,3.60
2017-11-24T04:58:56.573Z,3.70
2017-11-24T05:01:23.078Z,3.70
2017-11-24T05:03:50.839Z,3.70
2017-11-24T05:06:18.474Z,3.80
2017-11-24T05:08:44.768Z,3.70
2017-11-24T05:11:12.007Z,3.80
2017-11-24T05:13:38.315Z,3.80
2017-11-24T05:16:05.668Z,3.60
2017-11-24T05:18:33.760Z,3.60
2017-11-24T05:21:01.001Z,3.50
2017-11-24T05:23:27.956Z,3.60
2017-11-24T05:25:54.270Z,3.60
2017-11-24T05:28:21.351Z,3.70
2017-11-24T05:30:48.175Z,3.60
2017-11-24T05:33:15.912Z,3.80
2017-11-24T05:35:43.458Z,3.80
2017-11-24T05:38:10.212Z,3.80
2017-11-24T05:40:38.364Z,3.80
2017-11-24T05:43:06.040Z,3.90
2017-11-24T05:45:33.350Z,3.90
2017-11-24T05:48:00.391Z,4.00
2017-11-24T05:50:26.619Z,4.00
2017-11-24T05:52:53.201Z,4.10
2017-11-24T05:55:20.790Z,4.10
2017-11-24T05:57:47.530Z,4.10
2017-11-24T06:00:14.707Z,4.10
2017-11-24T06:02:42.073Z,4.10
2017-11-24T06:05:09.006Z,4.10
2017-11-24T06:07:35.344Z,4.20
2017-11-24T06:10:01.568Z,4.20
2017-11-24T06:12:27.877Z,4.20
2017-11-24T06:14:54.333Z,4.30
2017-11-24T06:17:22.431Z,4.40
2017-11-24T06:19:49.886Z,4.30
2017-11-24T06:22:16.198Z,4.40
2017-11-24T06:24:43.748Z,4.40
2017-11-24T06:27:10.472Z,4.40
2017-11-24T06:29:37.077Z,4.40
2017-11-24T06:32:04.632Z,4.60
2017-11-24T06:34:31.580Z,4.70
2017-11-24T06:36:58.696Z,4.70
2017-11-24T06:39:25.744Z,4.70
2017-11-24T06:41:52.542Z,4.70
2017-11-24T06:44:19.803Z,4.70
2017-11-24T06:46:46.578Z,4.70
2017-11-24T06:49:12.803Z,4.70
2017-11-24T06:51:40.379Z,4.60
2017-11-24T06:54:07.377Z,4.60
2017-11-24T06:56:35.353Z,4.60
2017-11-24T06:59:01.578Z,4.60
2017-11-24T07:01:28.247Z,4.70
2017-11-24T07:03:55.637Z,4.70
2017-11-24T07:06:22.684Z,4.70
2017-11-24T07:08:50.173Z,4.80
2017-11-24T07:11:16.403Z,4.80
2017-11-24T07:13:42.670Z,4.90
2017-11-24T07:16:10.750Z,4.90
2017-11-24T07:18:37.046Z,4.90
2017-11-24T07:21:05.140Z,5.00
2017-11-24T07:23:32.877Z,4.90
2017-11-24T07:25:59.593Z,5.00
2017-11-24T07:28:25.792Z,5.00
2017-11-24T07:30:53.452Z,5.10
2017-11-24T07:33:20.677Z,5.10
2017-11-24T07:35:47.912Z,5.10
2017-11-24T07:38:14.341Z,5.20
2017-11-24T07:40:41.336Z,5.20
2017-11-24T07:43:09.108Z,5.30
2017-11-24T07:45:36.638Z,5.30
2017-11-24T07:48:02.898Z,5.30
2017-11-24T07:50:29.794Z,5.40
2017-11-24T07:52:56.405Z,5.40
2017-11-24T07:55:23.451Z,5.30
2017-11-24T07:57:49.738Z,5.30
2017-11-24T08:00:16.960Z,5.40
2017-11-24T08:02:43.885Z,5.40
2017-11-24T08:05:10.134Z,5.50
2017-11-24T08:07:37.074Z,5.60
2017-11-24T08:10:03.852Z,5.70
2017-11-24T08:12:31.393Z,5.70
2017-11-24T08:14:57.816Z,5.70
2017-11-24T08:17:25.900Z,5.80
2017-11-24T08:19:52.694Z,5.80
2017-11-24T08:22:19.404Z,5.90
2017-11-24T08:24:46.383Z,6.00
2017-11-24T08:27:14.358Z,6.00
2017-11-24T08:29:42.087Z,6.10
2017-11-24T08:32:08.333Z,6.20
2017-11-24T08:34:35.401Z,6.20
2017-11-24T08:37:03.113Z,6.30
2017-11-24T08:39:30.048Z,6.40
2017-11-24T08:41:57.032Z,6.40
2017-11-24T08:44:23.468Z,6.40
2017-11-24T08:46:56.429Z,6.60
2017-11-24T08:49:29.728Z,6.90
2017-11-24T08:51:55.976Z,6.90
2017-11-24T08:54:22.684Z,7.10
2017-11-24T08:56:49.677Z,7.40
2017-11-24T08:59:16.012Z,7.40
2017-11-24T09:01:42.979Z,7.70
2017-11-24T09:04:09.345Z,7.60
2017-11-24T09:06:36.036Z,7.70
2017-11-24T09:09:02.278Z,7.70
2017-11-24T09:11:28.518Z,7.70
2017-11-24T09:13:56.004Z,7.90
2017-11-24T09:16:23.049Z,8.00
2017-11-24T09:18:50.238Z,8.00
2017-11-24T09:21:16.840Z,8.10
2017-11-24T09:23:44.185Z,8.40
2017-11-24T09:26:11.259Z,8.50
2017-11-24T09:28:37.517Z,8.50
2017-11-24T09:31:04.175Z,8.60
2017-11-24T09:33:31.831Z,8.80
2017-11-24T09:35:58.091Z,8.80
2017-11-24T09:38:24.301Z,8.90
2017-11-24T09:40:52.283Z,9.20
2017-11-24T09:43:18.561Z,9.20
2017-11-24T09:45:46.420Z,9.30
2017-11-24T09:48:12.932Z,9.50
2017-11-24T09:50:39.173Z,9.60
2017-11-24T09:53:06.252Z,9.80
2017-11-24T09:55:33.036Z,10.10
2017-11-24T09:57:59.296Z,10.40
2017-11-24T10:00:26.094Z,10.50
2017-11-24T10:02:53.662Z,11.10
2017-11-24T10:05:19.893Z,11.10
2017-11-24T10:07:46.349Z,11.30
2017-11-24T10:10:12.806Z,11.50
2017-11-24T10:12:39.824Z,11.80
2017-11-24T10:15:06.775Z,11.70
2017-11-24T10:17:34.541Z,11.90
2017-11-24T10:20:01.309Z,12.00
2017-11-24T10:22:34.174Z,12.10
2017-11-24T10:25:00.609Z,12.20
2017-11-24T10:27:27.831Z,12.30
2017-11-24T10:29:54.633Z,12.40
2017-11-24T10:32:21.971Z,12.60
2017-11-24T10:34:49.549Z,12.70
2017-11-24T10:37:17.327Z,12.80
2017-11-24T10:39:44.388Z,12.80
2017-11-24T10:42:11.854Z,12.80
2017-11-24T10:44:38.491Z,12.80
2017-11-24T10:47:05.770Z,12.90
2017-11-24T10:49:32.565Z,13.00
2017-11-24T10:51:59.356Z,13.00
2017-11-24T10:54:25.742Z,13.10
2017-11-24T10:56:52.588Z,13.10
2017-11-24T10:59:18.823Z,13.10
2017-11-24T11:01:45.701Z,13.10
2017-11-24T11:04:12.911Z,13.10
2017-11-24T11:06:40.110Z,12.90
2017-11-24T11:09:07.398Z,13.10
2017-11-24T11:11:34.343Z,13.10
2017-11-24T11:14:02.019Z,13.10
2017-11-24T11:16:29.561Z,13.00
2017-11-24T11:18:57.096Z,12.90
2017-11-24T11:21:24.819Z,12.80
2017-11-24T11:23:51.606Z,12.90
2017-11-24T11:26:19.123Z,12.80
2017-11-24T11:28:45.459Z,12.80
2017-11-24T11:31:12.757Z,12.70
2017-11-24T11:33:41.408Z,12.50
2017-11-24T11:36:08.540Z,12.50
2017-11-24T11:38:35.734Z,12.40
2017-11-24T11:41:03.112Z,12.50
2017-11-24T11:43:29.354Z,12.50
2017-11-24T11:45:55.870Z,12.60
2017-11-24T11:48:22.950Z,12.90
2017-11-24T11:50:49.785Z,12.90
2017-11-24T11:53:17.460Z,13.10
2017-11-24T11:55:44.002Z,13.10
2017-11-24T11:58:10.223Z,13.30
2017-11-24T12:00:37.446Z,13.50
2017-11-24T12:03:04.115Z,13.80
2017-11-24T12:05:31.573Z,14.00
2017-11-24T12:07:57.937Z,14.40
2017-11-24T12:10:25.558Z,14.80
2017-11-24T12:12:52.351Z,15.20
2017-11-24T12:15:20.612Z,15.50
2017-11-24T12:17:47.624Z,15.40
2017-11-24T12:20:13.834Z,15.40
2017-11-24T12:22:40.077Z,15.40
2017-11-24T12:25:06.911Z,15.60
2017-11-24T12:27:34.282Z,15.90
2017-11-24T12:30:01.972Z,16.40
2017-11-24T12:32:29.567Z,16.30
2017-11-24T12:34:57.983Z,16.40
2017-11-24T12:37:24.170Z,16.40
2017-11-24T12:39:50.387Z,16.40
2017-11-24T12:42:18.334Z,16.40
2017-11-24T12:44:44.617Z,16.40
2017-11-24T12:47:11.420Z,16.60
2017-11-24T12:49:38.395Z,16.90
2017-11-24T12:52:05.730Z,16.90
2017-11-24T12:54:32.128Z,16.90
2017-11-24T12:56:58.358Z,17.00
2017-11-24T12:59:24.751Z,16.90
2017-11-24T13:01:51.338Z,16.60
2017-11-24T13:04:19.966Z,16.90
2017-11-24T13:06:47.739Z,16.30
2017-11-24T13:09:15.140Z,16.30
2017-11-24T13:11:42.113Z,16.50
2017-11-24T13:14:08.342Z,16.50
2017-11-24T13:16:35.592Z,16.60
2017-11-24T13:19:01.824Z,16.70
2017-11-24T13:21:28.740Z,16.60
2017-11-24T13:23:56.483Z,16.00
2017-11-24T13:26:22.709Z,16.00
2017-11-24T13:28:49.515Z,15.80
2017-11-24T13:31:16.633Z,15.70
2017-11-24T13:33:44.225Z,15.70
2017-11-24T13:36:11.492Z,15.70
2017-11-24T13:38:38.809Z,15.60
2017-11-24T13:41:05.472Z,15.30
2017-11-24T13:43:32.961Z,15.10
2017-11-24T13:46:00.636Z,14.90
2017-11-24T13:48:26.846Z,14.90
2017-11-24T13:50:53.057Z,14.80
2017-11-24T13:53:21.136Z,14.70
2017-11-24T13:55:47.351Z,14.70
2017-11-24T13:58:13.580Z,14.70
2017-11-24T14:00:40.466Z,14.60
2017-11-24T14:03:06.716Z,14.50
2017-11-24T14:05:32.970Z,14.40
2017-11-24T14:07:59.915Z,14.40
2017-11-24T14:10:26.144Z,14.30
2017-11-24T14:12:52.659Z,14.10
2017-11-24T14:15:18.859Z,14.00
2017-11-24T14:17:46.438Z,13.70
2017-11-24T14:20:12.957Z,13.70
2017-11-24T14:22:40.901Z,13.20
2017-11-24T14:25:07.217Z,13.10
2017-11-24T14:27:33.977Z,13.00
2017-11-24T14:30:01.174Z,12.90
2017-11-24T14:32:27.612Z,12.90
2017-11-24T14:34:54.734Z,12.80
2017-11-24T14:37:21.120Z,12.80
2017-11-24T14:39:47.937Z,12.80
2017-11-24T14:42:14.448Z,12.80
2017-11-24T14:44:40.703Z,12.70
2017-11-24T14:47:06.991Z,12.70
2017-11-24T14:49:34.263Z,12.60
2017-11-24T14:52:00.491Z,12.60
2017-11-24T14:54:27.347Z,12.50
2017-11-24T14:56:53.592Z,12.50
2017-11-24T14:59:20.401Z,12.40
2017-11-24T15:01:48.625Z,12.30
2017-11-24T15:04:15.416Z,12.30
2017-11-24T15:06:42.911Z,12.30
2017-11-24T15:09:09.924Z,12.20
2017-11-24T15:11:36.665Z,12.20
2017-11-24T15:14:03.405Z,12.10
2017-11-24T15:16:29.623Z,12.10
2017-11-24T15:18:57.095Z,12.10
2017-11-24T15:21:23.918Z,12.00
2017-11-24T15:23:50.132Z,11.90
2017-11-24T15:26:17.095Z,11.80
2017-11-24T15:28:43.388Z,11.80
2017-11-24T15:31:10.181Z,11.70
2017-11-24T15:33:36.881Z,11.70
2017-11-24T15:36:04.094Z,11.50
2017-11-24T15:38:32.134Z,11.50
2017-11-24T15:40:59.343Z,11.50
2017-11-24T15:43:26.975Z,11.40
2017-11-24T15:45:53.605Z,11.40
2017-11-24T15:48:20.553Z,11.30
2017-11-24T15:50:47.748Z,11.10
2017-11-24T15:53:15.164Z,11.00
2017-11-24T15:55:43.463Z,10.90
2017-11-24T15:58:10.516Z,10.70
2017-11-24T16:00:36.791Z,10.70
2017-11-24T16:03:04.166Z,10.70
2017-11-24T16:05:31.948Z,10.60
2017-11-24T16:07:58.206Z,10.50
2017-11-24T16:10:25.767Z,10.20
2017-11-24T16:12:53.251Z,10.20
2017-11-24T16:15:19.806Z,10.20
2017-11-24T16:17:46.929Z,10.20
2017-11-24T16:20:13.891Z,10.10
2017-11-24T16:22:43.320Z,10.10
2017-11-24T16:25:09.543Z,10.00
2017-11-24T16:27:37.003Z,10.00
2017-11-24T16:30:03.770Z,10.00
2017-11-24T16:32:30.995Z,10.00
2017-11-24T16:34:58.936Z,9.90
2017-11-24T16:37:26.672Z,9.90
2017-11-24T16:39:54.240Z,9.90
2017-11-24T16:42:21.240Z,9.90
2017-11-24T16:44:47.998Z,9.90
2017-11-24T16:47:15.167Z,9.80
2017-11-24T16:49:43.364Z,9.80
2017-11-24T16:52:10.149Z,9.80
2017-11-24T16:54:38.035Z,9.50
2017-11-24T16:57:05.022Z,9.40
2017-11-24T16:59:31.865Z,9.40
2017-11-24T17:01:58.745Z,9.40
2017-11-24T17:04:25.198Z,9.20
2017-11-24T17:06:52.603Z,9.20
2017-11-24T17:09:18.925Z,9.20
2017-11-24T17:11:45.827Z,9.20
2017-11-24T17:14:14.004Z,9.10
2017-11-24T17:16:41.188Z,9.10
2017-11-24T17:19:09.057Z,9.10
2017-11-24T17:21:36.395Z,9.10
2017-11-24T17:24:04.007Z,9.10
2017-11-24T17:26:31.044Z,9.10
2017-11-24T17:28:57.896Z,9.10
2017-11-24T17:31:24.511Z,9.00
2017-11-24T17:33:51.229Z,9.00
2017-11-24T17:36:18.584Z,9.00
2017-11-24T17:38:45.453Z,9.00
2017-11-24T17:41:12.468Z,8.90
2017-11-24T17:43:38.739Z,8.90
2017-11-24T17:46:05.445Z,8.90
2017-11-24T17:48:32.493Z,8.80
2017-11-24T17:51:00.061Z,8.80
2017-11-24T17:53:27.329Z,8.80
2017-11-24T17:55:54.808Z,8.80
2017-11-24T17:58:21.487Z,8.80
2017-11-24T18:00:48.552Z,8.70
2017-11-24T18:03:15.322Z,8.70
2017-11-24T18:05:42.400Z,8.70
2017-11-24T18:08:09.869Z,8.60
2017-11-24T18:10:36.189Z,8.50
2017-11-24T18:13:03.805Z,8.50
2017-11-24T18:15:31.083Z,8.50
2017-11-24T18:17:58.664Z,8.50
2017-11-24T18:20:25.772Z,8.50
2017-11-24T18:22:52.772Z,8.50
2017-11-24T18:25:19.856Z,8.50
2017-11-24T18:27:46.775Z,8.50
2017-11-24T18:30:14.277Z,8.40
2017-11-24T18:32:42.579Z,8.10
2017-11-24T18:35:09.655Z,8.20
2017-11-24T18:37:35.885Z,8.20
2017-11-24T18:40:03.130Z,8.20
2017-11-24T18:42:29.948Z,8.00
2017-11-24T18:44:57.884Z,7.80
2017-11-24T18:47:24.389Z,7.70
2017-11-24T18:49:50.842Z,7.60
2017-11-24T18:52:18.891Z,7.60
2017-11-24T18:54:45.634Z,7.60
2017-11-24T18:57:12.019Z,7.70
2017-11-24T18:59:38.272Z,7.70
2017-11-24T19:02:05.182Z,7.70
2017-11-24T19:04:32.006Z,7.80
2017-11-24T19:06:58.494Z,7.80
2017-11-24T19:09:24.789Z,7.80
2017-11-24T19:11:52.254Z,7.90
2017-11-24T19:14:19.775Z,7.90
2017-11-24T19:16:47.329Z,7.90
2017-11-24T19:19:14.384Z,7.90
2017-11-24T19:21:41.271Z,7.80
2017-11-24T19:24:08.812Z,7.70
2017-11-24T19:26:35.779Z,7.70
2017-11-24T19:29:03.190Z,7.80
2017-11-24T19:31:30.113Z,7.80
2017-11-24T19:33:57.326Z,7.80
2017-11-24T19:36:23.723Z,7.90
2017-11-24T19:38:49.986Z,7.90
2017-11-24T19:41:16.985Z,7.90
2017-11-24T19:43:43.261Z,7.90
2017-11-24T19:46:10.389Z,7.90
2017-11-24T19:48:37.246Z,7.90
2017-11-24T19:51:04.952Z,7.90
2017-11-24T19:53:31.188Z,7.90
2017-11-24T19:55:57.473Z,8.00
2017-11-24T19:58:24.632Z,7.90
2017-11-24T20:00:52.656Z,7.80
2017-11-24T20:03:19.861Z,7.80
2017-11-24T20:05:46.654Z,7.80
2017-11-24T20:08:12.929Z,7.80
2017-11-24T20:10:40.199Z,7.80
2017-11-24T20:13:06.610Z,7.70
2017-11-24T20:15:33.124Z,7.70
2017-11-24T20:18:00.474Z,7.60
2017-11-24T20:20:27.435Z,7.60
2017-11-24T20:22:55.164Z,7.60
2017-11-24T20:25:21.974Z,7.60
2017-11-24T20:27:49.699Z,7.70
2017-11-24T20:30:16.696Z,7.70
2017-11-24T20:32:43.778Z,7.70
2017-11-24T20:35:10.052Z,7.80
2017-11-24T20:37:36.264Z,7.80
2017-11-24T20:40:02.522Z,7.80
2017-11-24T20:42:29.099Z,7.80
2017-11-24T20:44:56.199Z,7.70
2017-11-24T20:47:22.425Z,7.70
2017-11-24T20:49:49.188Z,7.70
2017-11-24T20:52:16.429Z,7.60
2017-11-24T20:54:43.197Z,7.60
2017-11-24T20:57:10.129Z,7.50
2017-11-24T20:59:38.157Z,7.60
2017-11-24T21:02:04.896Z,7.50
2017-11-24T21:04:32.464Z,7.60
2017-11-24T21:06:59.819Z,7.60
2017-11-24T21:09:26.898Z,7.60
2017-11-24T21:11:53.186Z,7.60
2017-11-24T21:14:19.958Z,7.60
2017-11-24T21:16:46.459Z,7.60
2017-11-24T21:19:16.132Z,7.60
2017-11-24T21:34:43.018Z,7.50
2017-11-24T21:37:09.333Z,6.80
2017-11-24T21:39:36.014Z,6.80
2017-11-24T21:42:03.867Z,6.90
2017-11-24T21:44:30.179Z,7.00
2017-11-24T21:46:57.311Z,7.00
2017-11-24T21:49:24.565Z,7.10
2017-11-24T21:51:51.182Z,7.10
2017-11-24T21:54:20.756Z,7.20
2017-11-24T21:56:47.535Z,7.20
2017-11-24T21:59:15.035Z,7.20
2017-11-24T22:01:41.417Z,7.20
2017-11-24T22:04:08.972Z,7.30
2017-11-24T22:06:36.609Z,7.10
2017-11-24T22:09:04.377Z,7.10
2017-11-24T22:11:31.625Z,7.10
2017-11-24T22:13:58.014Z,7.10
2017-11-24T22:16:25.161Z,7.20
2017-11-24T22:18:52.057Z,7.20
2017-11-24T22:21:19.162Z,7.20
2017-11-24T22:23:45.577Z,7.30
2017-11-24T22:26:12.172Z,7.30
2017-11-24T22:41:34.064Z,7.30
2017-11-24T22:44:00.346Z,7.00
2017-11-24T22:46:26.932Z,7.00
2017-11-24T22:48:54.151Z,7.00
2017-11-24T22:51:20.385Z,7.00
2017-11-24T22:53:47.608Z,7.10
2017-11-24T22:56:15.210Z,7.20
2017-11-24T22:58:42.000Z,7.10
2017-11-24T23:01:10.541Z,7.10
2017-11-24T23:03:37.571Z,7.10
2017-11-24T23:06:04.398Z,7.10
2017-11-24T23:08:30.713Z,7.10
2017-11-24T23:10:56.965Z,7.10
2017-11-24T23:13:23.196Z,7.10
2017-11-24T23:15:49.424Z,7.20
2017-11-24T23:18:15.637Z,7.10
2017-11-24T23:20:42.080Z,7.20
2017-11-24T23:23:09.740Z,7.20
2017-11-24T23:25:36.904Z,7.20
2017-11-24T23:28:04.037Z,7.00
2017-11-24T23:30:32.209Z,7.00
2017-11-24T23:33:00.385Z,7.00
2017-11-24T23:35:28.361Z,7.10
2017-11-24T23:37:55.565Z,7.00
2017-11-24T23:40:22.520Z,7.10
2017-11-24T23:42:49.527Z,7.00
2017-11-24T23:45:15.939Z,7.00
2017-11-24T23:47:44.093Z,6.80
2017-11-24T23:50:11.572Z,6.90
2017-11-24T23:52:38.589Z,6.80
2017-11-24T23:55:05.532Z,6.80
2017-11-24T23:57:31.755Z,6.70
2017-11-24T23:59:58.231Z,6.70
